Time;durP1;ratioP1;P1;durP2;ratioP2;P2;SDS_P1;SDS_P2;PMS_P1;PMS_P2;Temp;Humidity;BMP_temperature;BMP_pressure;BME280_temperature;BME280_humidity;BME280_pressure;Samples;Min_cycle;Max_cycle;Signal;HPM_P1;HPM_P2
2021/08/14 00:00:19;;;;;;;15.32;3.58;;;;;;;14.52;100.00;101948.16;4904043;29;20038;-79
2021/08/14 00:02:45;;;;;;;15.23;3.80;;;;;;;14.49;100.00;101956.34;4879385;29;20397;-79
2021/08/14 00:05:12;;;;;;;17.95;3.53;;;;;;;14.39;100.00;101951.09;4888106;29;20059;-79
2021/08/14 00:07:38;;;;;;;14.93;3.70;;;;;;;14.43;100.00;101948.16;4867397;29;20040;-79
2021/08/14 00:10:05;;;;;;;17.23;3.83;;;;;;;14.33;100.00;101943.72;4900825;29;20035;-78
2021/08/14 00:12:31;;;;;;;13.35;3.35;;;;;;;14.40;100.00;101949.28;4891797;29;20079;-79
2021/08/14 00:14:57;;;;;;;21.25;3.78;;;;;;;14.40;100.00;101944.81;4879881;29;20152;-79
2021/08/14 00:17:22;;;;;;;15.40;3.53;;;;;;;14.30;100.00;101938.75;4915680;29;20044;-80
2021/08/14 00:19:48;;;;;;;21.60;4.00;;;;;;;14.33;100.00;101943.72;4891170;29;20036;-79
2021/08/14 00:22:13;;;;;;;14.93;3.70;;;;;;;14.25;100.00;101938.31;4913359;29;20043;-79
2021/08/14 00:24:39;;;;;;;18.83;3.85;;;;;;;14.18;100.00;101945.13;4898647;29;20183;-78
2021/08/14 00:27:04;;;;;;;16.38;3.95;;;;;;;14.17;100.00;101938.22;4869409;29;20049;-78
2021/08/14 00:29:30;;;;;;;20.50;4.10;;;;;;;14.11;100.00;101946.66;4867741;29;20435;-81
2021/08/14 00:31:55;;;;;;;17.05;3.65;;;;;;;14.05;100.00;101944.59;4899174;29;20429;-80
2021/08/14 00:34:21;;;;;;;13.13;3.53;;;;;;;14.10;100.00;101953.75;4903265;29;20036;-79
2021/08/14 00:36:46;;;;;;;12.45;3.40;;;;;;;14.11;100.00;101947.50;4909371;29;20070;-79
2021/08/14 00:39:12;;;;;;;15.38;4.25;;;;;;;14.13;100.00;101942.94;4882530;29;20040;-80
2021/08/14 00:41:37;;;;;;;19.92;4.00;;;;;;;14.11;100.00;101949.31;4895176;29;20047;-79
2021/08/14 00:44:03;;;;;;;13.43;3.50;;;;;;;14.02;100.00;101949.19;4908461;29;20063;-79
2021/08/14 00:46:30;;;;;;;21.23;3.95;;;;;;;14.04;100.00;101953.50;4908630;29;20040;-78
2021/08/14 00:48:57;;;;;;;21.35;4.07;;;;;;;13.94;100.00;101945.59;4902404;29;20060;-79
2021/08/14 00:51:23;;;;;;;14.10;3.65;;;;;;;13.91;100.00;101951.13;4870270;29;20042;-79
2021/08/14 00:53:48;;;;;;;17.75;3.50;;;;;;;13.91;100.00;101946.69;4871921;29;20035;-80
2021/08/14 00:56:14;;;;;;;18.02;3.85;;;;;;;13.83;100.00;101941.28;4887614;29;20036;-80
2021/08/14 00:58:39;;;;;;;15.50;3.78;;;;;;;13.82;100.00;101943.09;4883658;29;20032;-80
2021/08/14 01:01:05;;;;;;;18.60;4.15;;;;;;;13.79;100.00;101938.09;4896786;29;20557;-78
2021/08/14 01:03:31;;;;;;;15.88;3.67;;;;;;;13.73;100.00;101925.47;4916612;29;20027;-80
2021/08/14 01:05:58;;;;;;;14.63;3.83;;;;;;;13.76;100.00;101932.25;4879791;29;20124;-78
2021/08/14 01:08:24;;;;;;;19.30;4.55;;;;;;;13.75;100.00;101930.56;4904990;29;20811;-77
2021/08/14 01:10:49;;;;;;;15.05;3.50;;;;;;;13.57;100.00;101897.00;4900585;29;20047;-78
2021/08/14 01:13:15;;;;;;;18.63;4.13;;;;;;;13.70;100.00;101919.63;4898615;29;20036;-81
2021/08/14 01:15:47;;;;;;;12.77;3.58;;;;;;;13.75;100.00;101933.22;4911099;29;20047;-79
2021/08/14 01:18:13;;;;;;;20.10;4.15;;;;;;;13.65;100.00;101930.56;4898398;29;20064;-81
2021/08/14 01:20:42;;;;;;;14.05;4.15;;;;;;;13.68;100.00;101930.31;4915648;29;20059;-80
2021/08/14 01:23:09;;;;;;;11.57;3.75;;;;;;;13.62;100.00;101930.88;4881427;29;20036;-79
2021/08/14 01:25:35;;;;;;;12.98;4.22;;;;;;;13.60;100.00;101920.44;4880442;29;20463;-80
2021/08/14 01:28:00;;;;;;;11.05;3.97;;;;;;;13.62;100.00;101912.41;4882947;29;20068;-80
2021/08/14 01:30:26;;;;;;;11.82;3.80;;;;;;;13.68;100.00;101917.13;4884154;29;20127;-80
2021/08/14 01:32:53;;;;;;;15.75;4.47;;;;;;;13.69;100.00;101908.22;4899028;29;20561;-79
2021/08/14 01:35:18;;;;;;;15.55;4.60;;;;;;;13.73;100.00;101907.00;4904331;29;20042;-78
2021/08/14 01:37:44;;;;;;;14.70;4.35;;;;;;;13.76;100.00;101917.25;4909281;29;20031;-79
2021/08/14 01:40:10;;;;;;;12.27;4.43;;;;;;;13.73;100.00;101906.16;4886268;29;20061;-80
2021/08/14 01:42:35;;;;;;;20.52;4.82;;;;;;;13.72;100.00;101918.50;4898563;29;20055;-79
2021/08/14 01:45:01;;;;;;;13.68;4.35;;;;;;;13.68;100.00;101911.03;4906782;29;20043;-78
2021/08/14 01:47:27;;;;;;;13.18;4.18;;;;;;;13.65;100.00;101906.84;4911637;29;20046;-79
2021/08/14 01:49:52;;;;;;;13.90;4.28;;;;;;;13.59;100.00;101899.50;4898146;29;20039;-78
2021/08/14 01:52:18;;;;;;;13.52;4.80;;;;;;;13.61;100.00;101906.28;4902383;29;20040;-79
2021/08/14 01:54:46;;;;;;;13.13;4.05;;;;;;;13.47;100.00;101885.63;4888420;29;20055;-78
2021/08/14 01:57:11;;;;;;;13.52;4.75;;;;;;;13.59;100.00;101897.69;4881356;29;20510;-79
2021/08/14 01:59:37;;;;;;;15.93;4.45;;;;;;;13.53;100.00;101890.34;4884979;29;20040;-80
2021/08/14 02:02:03;;;;;;;10.40;3.90;;;;;;;13.62;100.00;101907.97;4900203;29;20031;-77
2021/08/14 02:04:29;;;;;;;16.85;4.38;;;;;;;13.57;100.00;101904.91;4885077;29;20032;-79
2021/08/14 02:06:56;;;;;;;13.30;4.50;;;;;;;13.60;100.00;101911.72;4885801;29;20043;-79
2021/08/14 02:09:21;;;;;;;13.73;4.60;;;;;;;13.60;100.00;101909.09;4898150;29;20399;-80
2021/08/14 02:11:47;;;;;;;12.45;4.05;;;;;;;13.54;100.00;101904.34;4897646;29;20031;-81
2021/08/14 02:14:13;;;;;;;12.65;4.38;;;;;;;13.53;100.00;101903.50;4890095;29;20104;-79
2021/08/14 02:16:38;;;;;;;13.73;4.20;;;;;;;13.57;100.00;101909.34;4913413;29;20040;-79
2021/08/14 02:19:05;;;;;;;11.18;4.75;;;;;;;13.54;100.00;101901.69;4915768;29;20055;-78
2021/08/14 02:21:31;;;;;;;12.30;4.60;;;;;;;13.56;100.00;101907.66;4897924;29;20032;-80
2021/08/14 02:23:57;;;;;;;14.13;4.28;;;;;;;13.56;100.00;101897.97;4896705;29;20491;-80
2021/08/14 02:26:23;;;;;;;18.48;4.45;;;;;;;13.52;100.00;101893.94;4881740;29;20036;-80
2021/08/14 02:28:49;;;;;;;14.50;4.18;;;;;;;13.49;100.00;101896.03;4882522;29;20035;-78
2021/08/14 02:31:15;;;;;;;9.57;4.22;;;;;;;13.49;100.00;101886.31;4895229;29;20038;-80
2021/08/14 02:33:40;;;;;;;13.82;4.15;;;;;;;13.46;100.00;101883.13;4887502;29;20090;-79
2021/08/14 02:36:07;;;;;;;11.57;4.20;;;;;;;13.35;100.00;101871.72;4911195;29;20390;-80
2021/08/14 02:38:34;;;;;;;10.52;4.07;;;;;;;13.47;100.00;101876.84;4931776;29;20055;-80
2021/08/14 02:41:01;;;;;;;12.77;4.47;;;;;;;13.51;100.00;101878.28;4887003;29;20083;-81
2021/08/14 02:43:27;;;;;;;12.55;4.10;;;;;;;13.47;100.00;101874.22;4900087;29;20032;-80
2021/08/14 02:45:52;;;;;;;11.50;4.50;;;;;;;13.31;100.00;101880.88;4886570;29;20041;-81
2021/08/14 02:48:18;;;;;;;12.88;4.53;;;;;;;13.23;100.00;101875.44;4901521;29;20040;-81
2021/08/14 02:50:45;;;;;;;12.88;5.10;;;;;;;13.22;100.00;101881.66;4899178;29;20039;-80
2021/08/14 02:53:11;;;;;;;12.70;4.60;;;;;;;13.16;100.00;101869.84;4900781;29;20028;-82
2021/08/14 02:55:36;;;;;;;14.57;4.80;;;;;;;13.13;100.00;101869.28;4893615;29;20047;-82
2021/08/14 02:58:02;;;;;;;12.05;4.70;;;;;;;13.13;100.00;101864.03;4895301;29;20088;-81
2021/08/14 03:00:29;;;;;;;15.82;5.32;;;;;;;13.11;100.00;101864.19;4901692;29;20139;-83
2021/08/14 03:02:54;;;;;;;12.75;4.68;;;;;;;13.04;100.00;101865.69;4909498;29;20071;-82
2021/08/14 03:05:20;;;;;;;13.38;5.10;;;;;;;13.01;100.00;101858.03;4905735;29;20434;-80
2021/08/14 03:07:45;;;;;;;10.20;5.00;;;;;;;13.03;100.00;101870.13;4907914;29;20044;-81
2021/08/14 03:10:11;;;;;;;15.38;4.70;;;;;;;13.02;100.00;101865.00;4899702;29;20410;-81
2021/08/14 03:12:36;;;;;;;14.13;4.65;;;;;;;13.05;100.00;101868.19;4899158;29;20151;-81
2021/08/14 03:15:03;;;;;;;13.85;4.38;;;;;;;13.03;100.00;101859.59;4898624;29;20426;-79
2021/08/14 03:17:29;;;;;;;15.23;4.55;;;;;;;13.03;100.00;101864.88;4892363;29;20050;-80
2021/08/14 03:19:54;;;;;;;11.27;3.88;;;;;;;13.07;100.00;101867.22;4883275;29;20036;-80
2021/08/14 03:22:20;;;;;;;11.63;3.92;;;;;;;13.10;100.00;101867.78;4883394;29;20430;-81
2021/08/14 03:24:45;;;;;;;12.02;4.03;;;;;;;13.09;100.00;101862.63;4902987;29;20118;-80
2021/08/14 03:27:11;;;;;;;9.75;4.00;;;;;;;13.24;100.00;101867.41;4887627;29;20075;-81
2021/08/14 03:29:36;;;;;;;11.68;4.63;;;;;;;13.33;100.00;101865.75;4895210;29;20047;-80
2021/08/14 03:32:02;;;;;;;14.55;4.70;;;;;;;13.36;100.00;101849.69;4878944;29;20044;-81
2021/08/14 03:34:27;;;;;;;13.75;5.03;;;;;;;13.51;100.00;101865.91;4882047;29;20156;-81
2021/08/14 03:36:53;;;;;;;14.57;4.85;;;;;;;13.54;100.00;101862.16;4898738;29;20036;-83
2021/08/14 03:39:18;;;;;;;15.90;4.65;;;;;;;13.56;100.00;101871.63;4883697;29;20553;-80
2021/08/14 03:41:44;;;;;;;11.80;4.50;;;;;;;13.48;100.00;101874.09;4891918;29;20083;-81
2021/08/14 03:44:10;;;;;;;15.05;4.70;;;;;;;13.40;100.00;101861.59;4898531;29;20597;-81
2021/08/14 03:46:36;;;;;;;13.63;4.65;;;;;;;13.47;100.00;101877.72;4916995;29;20410;-81
2021/08/14 03:49:02;;;;;;;12.05;4.60;;;;;;;13.42;100.00;101872.00;4883556;29;20076;-81
2021/08/14 03:51:27;;;;;;;17.48;5.00;;;;;;;13.35;100.00;101871.72;4884508;29;20421;-79
2021/08/14 03:53:53;;;;;;;13.82;4.40;;;;;;;13.40;100.00;101874.78;4894070;29;20051;-81
2021/08/14 03:56:18;;;;;;;14.00;4.82;;;;;;;13.42;100.00;101861.47;4886231;29;20039;-80
2021/08/14 03:58:44;;;;;;;12.18;4.55;;;;;;;13.48;100.00;101868.81;4884207;29;20581;-80
2021/08/14 04:01:09;;;;;;;14.23;5.20;;;;;;;13.51;100.00;101865.91;4915446;29;20048;-79
2021/08/14 04:03:35;;;;;;;13.80;5.13;;;;;;;13.58;100.00;101874.94;4912908;29;20241;-79
2021/08/14 04:06:01;;;;;;;16.30;4.88;;;;;;;13.56;100.00;101863.72;4887055;29;20410;-81
2021/08/14 04:08:26;;;;;;;14.48;4.70;;;;;;;13.58;100.00;101872.31;4889948;29;20410;-79
2021/08/14 04:10:53;;;;;;;12.98;5.07;;;;;;;13.53;100.00;101871.06;4886633;29;20091;-80
2021/08/14 04:13:18;;;;;;;13.52;5.10;;;;;;;13.52;100.00;101864.09;4926153;29;20028;-80
2021/08/14 04:15:44;;;;;;;11.75;4.85;;;;;;;13.51;100.00;101867.72;4889233;29;20049;-83
2021/08/14 04:18:10;;;;;;;13.10;5.15;;;;;;;13.54;100.00;101870.06;4918806;29;20490;-82
2021/08/14 04:20:35;;;;;;;12.45;4.15;;;;;;;13.53;100.00;101871.88;4872792;29;20036;-80
2021/08/14 04:23:01;;;;;;;13.52;4.72;;;;;;;13.50;100.00;101868.69;4896194;29;20024;-79
2021/08/14 04:25:27;;;;;;;13.35;4.43;;;;;;;13.53;100.00;101874.50;4918249;29;20039;-80
2021/08/14 04:27:52;;;;;;;12.23;4.57;;;;;;;13.58;100.00;101864.41;4926540;29;20032;-81
2021/08/14 04:30:18;;;;;;;15.10;4.60;;;;;;;13.66;100.00;101870.78;4895224;29;20036;-81
2021/08/14 04:32:43;;;;;;;8.80;4.20;;;;;;;13.60;100.00;101856.34;4917409;29;20130;-80
2021/08/14 04:35:14;;;;;;;11.55;4.40;;;;;;;13.62;100.00;101867.59;4917932;29;20062;-82
2021/08/14 04:37:40;;;;;;;8.90;4.10;;;;;;;13.60;100.00;101870.38;4896629;29;20039;-81
2021/08/14 04:40:08;;;;;;;14.52;4.93;;;;;;;13.66;100.00;101868.97;4882955;29;20832;-83
2021/08/14 04:42:34;;;;;;;12.93;4.65;;;;;;;13.76;100.00;101875.06;4903322;29;20036;-80
2021/08/14 04:44:59;;;;;;;12.63;4.88;;;;;;;13.80;100.00;101880.91;4890744;29;20063;-81
2021/08/14 04:47:25;;;;;;;11.75;4.93;;;;;;;13.89;100.00;101881.88;4883241;29;20824;-81
2021/08/14 04:49:50;;;;;;;12.25;5.15;;;;;;;13.88;100.00;101878.41;4895887;29;20086;-80
2021/08/14 04:52:16;;;;;;;17.00;4.80;;;;;;;13.90;100.00;101870.31;4885902;29;20036;-83
2021/08/14 04:54:42;;;;;;;14.95;5.00;;;;;;;13.91;100.00;101864.09;4901025;29;20091;-80
2021/08/14 04:57:07;;;;;;;15.15;5.85;;;;;;;13.98;100.00;101866.03;4893466;29;20044;-81
2021/08/14 04:59:33;;;;;;;13.55;4.90;;;;;;;14.00;100.00;101858.78;4901294;29;20268;-81
2021/08/14 05:01:58;;;;;;;10.85;5.20;;;;;;;14.10;100.00;101871.97;4910016;29;20032;-83
2021/08/14 05:04:24;;;;;;;15.93;4.57;;;;;;;14.20;100.00;101869.31;4914018;29;20119;-81
2021/08/14 05:06:50;;;;;;;11.43;4.22;;;;;;;14.22;100.00;101875.25;4911407;29;20048;-81
2021/08/14 05:09:16;;;;;;;12.32;4.72;;;;;;;14.17;100.00;101870.44;4908668;29;20032;-81
2021/08/14 05:11:42;;;;;;;12.95;4.50;;;;;;;14.24;100.00;101880.41;4871566;29;20127;-81
2021/08/14 05:14:07;;;;;;;20.75;5.22;;;;;;;14.23;100.00;101871.66;4909802;29;20114;-81
2021/08/14 05:16:34;;;;;;;11.73;4.47;;;;;;;14.27;100.00;101880.13;4903880;29;20409;-80
2021/08/14 05:19:00;;;;;;;15.05;4.57;;;;;;;14.25;100.00;101879.44;4899704;29;20036;-81
2021/08/14 05:21:26;;;;;;;17.52;4.68;;;;;;;14.32;100.00;101884.00;4900370;29;20087;-80
2021/08/14 05:23:51;;;;;;;16.08;4.60;;;;;;;14.40;100.00;101878.00;4929027;29;20491;-79
2021/08/14 05:26:17;;;;;;;16.23;4.90;;;;;;;14.44;100.00;101875.91;4898078;29;20399;-80
2021/08/14 05:28:42;;;;;;;12.98;4.32;;;;;;;14.39;100.00;101858.72;4936642;29;20035;-80
2021/08/14 05:31:08;;;;;;;13.15;4.50;;;;;;;14.57;100.00;101872.00;4885261;29;20031;-82
2021/08/14 05:33:33;;;;;;;12.15;4.22;;;;;;;14.66;100.00;101877.41;4894574;29;20051;-82
2021/08/14 05:35:59;;;;;;;17.67;5.05;;;;;;;14.73;100.00;101875.81;4891732;29;20565;-79
2021/08/14 05:38:24;;;;;;;11.40;4.28;;;;;;;14.82;100.00;101859.09;4902666;29;20032;-82
2021/08/14 05:40:50;;;;;;;10.85;4.25;;;;;;;14.87;100.00;101856.84;4894640;29;20032;-81
2021/08/14 05:43:16;;;;;;;17.75;4.32;;;;;;;15.03;100.00;101868.56;4884454;29;20058;-81
2021/08/14 05:45:41;;;;;;;13.20;3.92;;;;;;;15.09;100.00;101865.34;4892615;29;20494;-80
2021/08/14 05:48:07;;;;;;;14.18;4.22;;;;;;;15.17;100.00;101868.91;4889135;29;20040;-83
2021/08/14 05:50:33;;;;;;;17.70;4.88;;;;;;;15.28;100.00;101865.22;4885980;29;20088;-83
2021/08/14 05:52:59;;;;;;;13.73;4.20;;;;;;;15.38;100.00;101865.97;4870427;29;20043;-81
2021/08/14 05:55:25;;;;;;;14.25;4.20;;;;;;;15.42;100.00;101863.84;4885424;29;20040;-82
2021/08/14 05:57:53;;;;;;;13.15;3.95;;;;;;;15.53;100.00;101878.66;4885711;29;20047;-81
2021/08/14 06:00:19;;;;;;;15.77;4.28;;;;;;;15.53;100.00;101850.41;4892149;29;20138;-81
2021/08/14 06:02:44;;;;;;;14.40;3.85;;;;;;;15.70;100.00;101859.31;4883661;29;20342;-80
2021/08/14 06:05:10;;;;;;;15.10;3.97;;;;;;;15.78;100.00;101855.91;4885071;29;20043;-82
2021/08/14 06:07:35;;;;;;;18.90;4.65;;;;;;;15.90;99.41;101865.28;4891295;29;20114;-82
2021/08/14 06:10:04;;;;;;;17.27;4.22;;;;;;;16.02;99.06;101870.34;4885821;29;20044;-80
2021/08/14 06:12:29;;;;;;;17.92;3.70;;;;;;;16.13;97.85;101870.06;4933352;29;20053;-83
2021/08/14 06:14:55;;;;;;;18.88;4.72;;;;;;;16.21;97.44;101864.00;4904443;29;20039;-80
2021/08/14 06:17:20;;;;;;;17.75;3.60;;;;;;;16.26;96.57;101861.72;4910775;29;20036;-80
2021/08/14 06:19:46;;;;;;;15.88;4.18;;;;;;;16.40;96.37;101866.41;4900933;29;20110;-81
2021/08/14 06:22:11;;;;;;;17.85;3.72;;;;;;;16.54;95.21;101867.66;4884675;29;20044;-80
2021/08/14 06:24:37;;;;;;;15.95;3.50;;;;;;;16.60;94.84;101868.84;4892469;29;20115;-81
2021/08/14 06:27:02;;;;;;;17.33;3.90;;;;;;;16.68;94.94;101855.63;4878706;29;20040;-82
2021/08/14 06:29:28;;;;;;;14.02;3.75;;;;;;;16.79;93.14;101854.50;4884493;29;20044;-82
2021/08/14 06:31:53;;;;;;;17.38;3.85;;;;;;;16.85;92.70;101859.19;4910479;29;20047;-80
2021/08/14 06:34:19;;;;;;;16.70;3.70;;;;;;;16.95;92.07;101848.47;4883442;29;20790;-81
2021/08/14 06:36:44;;;;;;;16.95;3.85;;;;;;;17.10;90.82;101855.63;4910138;29;20032;-82
2021/08/14 06:39:10;;;;;;;16.08;3.80;;;;;;;17.16;90.52;101848.00;4876446;29;20040;-81
2021/08/14 06:41:35;;;;;;;16.10;3.50;;;;;;;17.23;90.02;101852.50;4884132;29;20040;-82
2021/08/14 06:44:01;;;;;;;15.30;3.90;;;;;;;17.31;89.21;101862.31;4911971;29;20106;-83
2021/08/14 06:46:26;;;;;;;15.40;3.38;;;;;;;17.46;88.59;101860.66;4913832;29;20035;-81
2021/08/14 06:48:52;;;;;;;18.05;3.65;;;;;;;17.53;88.14;101852.84;4890072;29;20035;-80
2021/08/14 06:51:18;;;;;;;12.70;3.20;;;;;;;17.63;86.94;101847.38;4911298;29;20040;-80
2021/08/14 06:53:43;;;;;;;16.05;3.83;;;;;;;17.88;84.85;101850.91;4887290;29;21033;-79
2021/08/14 06:56:09;;;;;;;14.45;3.50;;;;;;;18.02;83.93;101846.72;4869376;29;20042;-80
2021/08/14 06:58:34;;;;;;;16.35;3.55;;;;;;;18.06;85.69;101837.41;4884879;29;20443;-82
2021/08/14 07:01:00;;;;;;;11.07;3.10;;;;;;;18.18;84.69;101844.03;4904066;29;20042;-80
2021/08/14 07:03:25;;;;;;;18.27;3.65;;;;;;;18.27;84.19;101850.13;4879417;29;20042;-81
2021/08/14 07:05:51;;;;;;;12.15;3.35;;;;;;;18.40;84.59;101844.28;4908912;29;20549;-81
2021/08/14 07:08:16;;;;;;;10.65;3.15;;;;;;;18.42;82.83;101844.94;4934841;29;20055;-82
2021/08/14 07:10:42;;;;;;;17.77;4.40;;;;;;;18.45;82.95;101836.66;4879941;29;20036;-83
2021/08/14 07:13:07;;;;;;;11.23;3.10;;;;;;;18.53;82.46;101841.91;4884327;29;20067;-82
2021/08/14 07:15:33;;;;;;;16.10;3.42;;;;;;;18.54;81.22;101840.09;4874457;29;20086;-80
2021/08/14 07:17:58;;;;;;;13.80;3.13;;;;;;;18.56;81.60;101840.75;4903379;29;20047;-79
2021/08/14 07:20:24;;;;;;;16.70;3.45;;;;;;;18.68;80.69;101842.03;4875625;29;20043;-81
2021/08/14 07:22:50;;;;;;;17.52;3.38;;;;;;;18.97;81.32;101835.28;4887354;29;20078;-80
2021/08/14 07:25:15;;;;;;;15.20;3.40;;;;;;;19.25;78.98;101839.06;4893450;29;20119;-81
2021/08/14 07:27:41;;;;;;;16.65;3.33;;;;;;;19.60;77.98;101846.59;4900247;29;20050;-81
2021/08/14 07:30:09;;;;;;;11.73;2.95;;;;;;;19.71;75.09;101843.53;4883452;29;20123;-82
2021/08/14 07:32:34;;;;;;;11.90;3.10;;;;;;;19.87;76.13;101842.56;4887098;29;20042;-80
2021/08/14 07:35:00;;;;;;;12.65;3.60;;;;;;;20.00;75.29;101832.13;4884159;29;20031;-81
2021/08/14 07:37:25;;;;;;;12.73;3.33;;;;;;;20.14;72.69;101816.34;4870192;29;20510;-80
2021/08/14 07:39:51;;;;;;;9.75;3.10;;;;;;;20.41;72.22;101828.16;4886165;29;20115;-81
2021/08/14 07:42:17;;;;;;;13.02;3.30;;;;;;;20.41;71.50;101834.31;4888888;29;20043;-82
2021/08/14 07:44:42;;;;;;;12.85;2.90;;;;;;;20.32;71.34;101821.28;4883470;29;20032;-81
2021/08/14 07:47:08;;;;;;;12.32;3.05;;;;;;;20.28;72.73;101826.16;4914869;29;20047;-80
2021/08/14 07:49:33;;;;;;;13.32;3.00;;;;;;;20.38;72.72;101826.72;4881913;29;20051;-82
2021/08/14 07:52:00;;;;;;;10.07;3.08;;;;;;;20.50;69.16;101823.56;4868678;29;20043;-84
2021/08/14 07:54:26;;;;;;;9.38;2.70;;;;;;;20.51;67.79;101836.72;4868142;29;20044;-84
2021/08/14 07:56:51;;;;;;;12.02;3.22;;;;;;;20.66;68.50;101831.38;4899316;29;20035;-79
2021/08/14 07:59:17;;;;;;;13.55;3.22;;;;;;;20.74;69.09;101828.59;4887782;29;20036;-81
2021/08/14 08:01:42;;;;;;;13.65;3.38;;;;;;;20.90;69.30;101837.41;4904009;29;20418;-83
2021/08/14 08:04:08;;;;;;;10.27;3.13;;;;;;;20.85;66.38;101832.63;4876626;29;20040;-79
2021/08/14 08:06:33;;;;;;;13.07;3.20;;;;;;;20.74;65.94;101822.47;4905290;29;20064;-81
2021/08/14 08:08:59;;;;;;;10.35;2.60;;;;;;;20.65;67.09;101824.41;4883443;29;20517;-82
2021/08/14 08:11:24;;;;;;;9.55;2.95;;;;;;;20.88;68.43;101818.91;4892514;29;20035;-83
2021/08/14 08:13:50;;;;;;;13.70;3.03;;;;;;;20.98;67.55;101818.59;4893892;29;20786;-82
2021/08/14 08:16:15;;;;;;;13.93;3.40;;;;;;;21.04;68.23;101817.88;4901677;29;20040;-84
2021/08/14 08:18:41;;;;;;;13.65;3.45;;;;;;;21.08;66.99;101823.63;4900204;29;20044;-82
2021/08/14 08:21:07;;;;;;;10.60;3.10;;;;;;;21.16;66.74;101826.19;4886199;29;20039;-81
2021/08/14 08:23:33;;;;;;;12.40;2.90;;;;;;;21.42;67.41;101816.75;4886443;29;20118;-82
2021/08/14 08:25:58;;;;;;;15.52;3.95;;;;;;;21.46;65.20;101818.06;4917742;29;20034;-83
2021/08/14 08:28:24;;;;;;;12.98;3.33;;;;;;;21.50;65.56;101819.31;4881232;29;20084;-81
2021/08/14 08:30:50;;;;;;;11.70;3.00;;;;;;;21.55;63.60;101816.91;4883477;29;20052;-82
2021/08/14 08:33:15;;;;;;;12.98;3.50;;;;;;;21.68;64.06;101821.50;4898428;29;20040;-82
2021/08/14 08:35:40;;;;;;;13.18;3.10;;;;;;;21.66;63.99;101821.72;4885004;29;20039;-85
2021/08/14 08:38:06;;;;;;;14.88;3.25;;;;;;;21.74;64.87;101826.09;4904622;29;20039;-81
2021/08/14 08:40:37;;;;;;;14.48;3.38;;;;;;;21.88;63.09;101824.31;4883641;29;20042;-81
2021/08/14 08:43:03;;;;;;;11.93;2.80;;;;;;;22.02;63.79;101825.22;4887520;29;20070;-86
2021/08/14 08:45:30;;;;;;;12.02;3.15;;;;;;;21.92;64.15;101815.72;4885329;29;20068;-84
2021/08/14 08:47:56;;;;;;;12.25;3.10;;;;;;;21.78;66.80;101814.00;4893391;29;20541;-83
2021/08/14 08:50:22;;;;;;;17.27;3.63;;;;;;;21.88;65.72;101819.00;4887795;29;20392;-83
2021/08/14 08:52:47;;;;;;;13.93;3.53;;;;;;;22.16;65.16;101822.44;4909612;29;20028;-81
2021/08/14 08:55:14;;;;;;;8.93;3.00;;;;;;;22.30;61.40;101809.16;4900303;29;20027;-83
2021/08/14 08:57:40;;;;;;;10.80;3.00;;;;;;;22.26;62.86;101806.06;4904685;29;20040;-82
2021/08/14 09:00:09;;;;;;;14.15;3.00;;;;;;;22.31;62.25;101803.63;4903592;29;20087;-85
2021/08/14 09:02:35;;;;;;;12.30;3.55;;;;;;;22.49;62.12;101795.09;4887738;29;20045;-82
2021/08/14 09:05:05;;;;;;;12.63;2.95;;;;;;;22.64;60.95;101800.28;4877190;29;20032;-83
2021/08/14 09:07:31;;;;;;;11.23;3.42;;;;;;;22.42;63.69;101791.56;4889787;29;20040;-83
2021/08/14 09:09:58;;;;;;;12.75;3.35;;;;;;;22.78;62.78;101790.44;4908318;29;20067;-84
2021/08/14 09:12:31;;;;;;;11.68;3.30;;;;;;;23.03;62.45;101803.22;4898158;29;20102;-83
2021/08/14 09:14:57;;;;;;;14.27;3.40;;;;;;;23.45;61.34;101795.88;4926982;29;20412;-83
2021/08/14 09:17:28;;;;;;;10.20;3.35;;;;;;;23.46;64.33;101784.16;4893978;29;20040;-84
2021/08/14 09:20:15;;;;;;;12.35;3.13;;;;;;;23.27;61.46;101794.63;4901617;29;20051;-80
2021/08/14 09:22:59;;;;;;;14.18;3.53;;;;;;;23.19;63.75;101799.34;4878082;29;20059;-82
2021/08/14 09:25:25;;;;;;;14.27;3.08;;;;;;;23.09;62.84;101795.25;4875725;29;20040;-83
2021/08/14 09:27:56;;;;;;;13.60;3.20;;;;;;;22.93;60.74;101788.41;4920243;29;20474;-83
2021/08/14 09:30:49;;;;;;;13.10;3.00;;;;;;;22.78;64.58;101784.28;4894816;29;20038;-84
2021/08/14 09:33:17;;;;;;;9.82;3.13;;;;;;;22.78;62.11;101787.75;4875188;29;20035;-82
2021/08/14 09:35:44;;;;;;;15.70;3.65;;;;;;;22.82;62.47;101794.34;4902216;29;20036;-82
2021/08/14 09:38:13;;;;;;;11.40;3.28;;;;;;;22.80;62.85;101784.88;4912256;29;20399;-85
2021/08/14 09:40:46;;;;;;;8.55;3.13;;;;;;;22.73;62.26;101795.56;4883469;29;20499;-83
2021/08/14 09:43:13;;;;;;;12.95;3.63;;;;;;;22.76;61.62;101778.31;4889706;29;20027;-83
2021/08/14 09:45:52;;;;;;;10.02;3.15;;;;;;;22.89;61.89;101779.13;4879428;29;20071;-83
2021/08/14 09:48:20;;;;;;;11.15;3.33;;;;;;;23.06;63.45;101778.78;4900121;29;20067;-83
2021/08/14 09:50:46;;;;;;;8.02;2.80;;;;;;;23.21;61.51;101774.06;4910549;29;20075;-82
2021/08/14 09:53:22;;;;;;;13.23;3.45;;;;;;;23.13;64.16;101780.44;4927849;29;20032;-84
2021/08/14 09:56:02;;;;;;;12.93;3.30;;;;;;;22.94;65.35;101781.19;4905750;29;20040;-84
2021/08/14 09:58:29;;;;;;;10.00;3.05;;;;;;;22.76;64.06;101768.41;4897449;29;20585;-84
2021/08/14 10:00:56;;;;;;;18.70;3.75;;;;;;;22.70;66.85;101777.25;4877376;29;20111;-83
2021/08/14 10:03:22;;;;;;;11.90;3.75;;;;;;;22.65;66.57;101782.38;4865438;29;20031;-83
2021/08/14 10:05:47;;;;;;;10.23;3.30;;;;;;;22.78;65.31;101768.22;4894186;29;20054;-84
2021/08/14 10:08:13;;;;;;;11.50;3.38;;;;;;;23.05;62.24;101777.13;4895981;29;20027;-83
2021/08/14 10:10:40;;;;;;;14.30;3.63;;;;;;;23.10;61.92;101767.47;4886320;29;20402;-84
2021/08/14 10:13:05;;;;;;;26.10;4.13;;;;;;;23.00;64.26;101759.00;4883808;29;20063;-84
2021/08/14 10:15:31;;;;;;;12.75;3.53;;;;;;;23.07;61.77;101753.66;4868744;29;20497;-80
2021/08/14 10:17:57;;;;;;;9.02;3.13;;;;;;;23.04;62.45;101757.59;4868765;29;20032;-82
2021/08/14 10:20:23;;;;;;;8.93;2.92;;;;;;;23.00;62.55;101748.28;4886769;29;20039;-82
2021/08/14 10:23:07;;;;;;;13.82;2.72;;;;;;;22.81;65.81;101749.91;4871915;29;20478;-83
2021/08/14 10:25:35;;;;;;;7.65;2.85;;;;;;;22.65;66.78;101750.28;4868408;29;20486;-82
2021/08/14 10:28:09;;;;;;;9.02;2.70;;;;;;;22.63;64.58;101755.03;4901410;29;20064;-85
2021/08/14 10:30:42;;;;;;;12.63;2.90;;;;;;;22.62;63.81;101751.53;4914290;29;20130;-81
2021/08/14 10:33:28;;;;;;;7.93;2.80;;;;;;;22.69;68.24;101746.19;4900979;29;20040;-83
2021/08/14 10:36:16;;;;;;;11.35;3.00;;;;;;;22.73;66.36;101750.09;4883231;29;20126;-83
2021/08/14 10:38:44;;;;;;;13.70;3.05;;;;;;;22.75;65.05;101756.06;4850146;29;20036;-83
2021/08/14 10:41:11;;;;;;;10.85;3.42;;;;;;;22.69;60.94;101752.34;4868747;29;20036;-84
2021/08/14 10:43:52;;;;;;;16.75;3.08;;;;;;;22.51;63.16;101744.09;4866041;29;20044;-83
2021/08/14 10:46:51;;;;;;;10.73;3.10;;;;;;;22.52;63.66;101740.38;4869565;29;20039;-84
2021/08/14 10:49:36;;;;;;;11.07;3.80;;;;;;;22.65;67.28;101734.25;4882291;29;20028;-82
2021/08/14 10:52:01;;;;;;;12.10;2.80;;;;;;;22.89;60.85;101739.00;4878141;29;20040;-86
2021/08/14 10:54:27;;;;;;;13.00;3.10;;;;;;;23.00;65.23;101731.41;4885016;29;20044;-83
2021/08/14 10:56:54;;;;;;;11.73;2.63;;;;;;;23.08;65.88;101732.06;4874566;29;20059;-83
2021/08/14 10:59:43;;;;;;;12.05;3.00;;;;;;;23.28;66.02;101728.53;4889355;29;20426;-84
2021/08/14 11:02:14;;;;;;;12.52;3.15;;;;;;;23.51;65.79;101728.13;4876297;29;20162;-84
2021/08/14 11:04:53;;;;;;;8.45;2.90;;;;;;;23.71;61.12;101734.25;4869836;29;20036;-84
2021/08/14 11:07:18;;;;;;;13.82;3.17;;;;;;;23.68;61.74;101732.00;4876013;29;20439;-83
2021/08/14 11:09:53;;;;;;;7.57;2.50;;;;;;;23.69;62.68;101724.78;4888164;29;20046;-82
2021/08/14 11:12:35;;;;;;;10.88;2.83;;;;;;;23.63;65.19;101726.44;4877407;29;20043;-84